Terminal Aerodrome Forecast
Issued by NWS Albuquerque, NM

Home | Current Version | Previous Version | Text Only | Print | Product List | Glossary On
Versions: 1 2 3 4 5 6 7 8 9 10 11 12 13 14 15 16 17 18 19 20 21 22
000
FTUS45 KABQ 020500
TAFABQ
TAF
KABQ 020529Z 0206/0306 09015G25KT P6SM FEW090 SCT200
     FM021000 08012KT P6SM FEW050 SCT120
     FM021600 18007KT P6SM VCSH BKN040
     FM022000 18018G26KT P6SM VCSH BKN030
     FM030500 31014G20KT P6SM -SHRA OVC025=

USA.gov is the U.S. government's official web portal to all federal, state and local government web resources and services.